createdAt,value
2023-02-17T00:00:49.074Z,83.82
2023-02-17T00:01:50.966Z,83.08
2023-02-17T00:02:57.438Z,85.22
2023-02-17T00:04:00.024Z,84.28
2023-02-17T00:05:01.926Z,83.22
2023-02-17T00:06:08.474Z,82.80
2023-02-17T00:07:10.353Z,83.38
2023-02-17T00:08:12.829Z,83.05
2023-02-17T00:09:14.845Z,84.42
2023-02-17T00:10:16.807Z,84.73
2023-02-17T00:11:19.245Z,86.73
2023-02-17T00:12:21.220Z,83.95
2023-02-17T00:13:23.046Z,83.98
2023-02-17T00:14:24.852Z,84.75
2023-02-17T00:15:26.649Z,85.03
2023-02-17T00:16:29.654Z,85.25
2023-02-17T00:17:31.582Z,84.48
2023-02-17T00:18:33.427Z,85.37
2023-02-17T00:19:35.278Z,86.62
2023-02-17T00:20:37.144Z,85.22
2023-02-17T00:21:38.945Z,85.47
2023-02-17T00:22:40.834Z,84.70
2023-02-17T00:23:43.497Z,85.25
2023-02-17T00:24:45.438Z,85.53
2023-02-17T00:25:47.359Z,85.72
2023-02-17T00:26:49.290Z,87.57
2023-02-17T00:27:51.133Z,85.28
2023-02-17T00:28:53.309Z,85.12
2023-02-17T00:29:55.167Z,85.83
2023-02-17T00:30:57.010Z,85.35
2023-02-17T00:31:59.101Z,86.18
2023-02-17T00:33:00.980Z,85.25
2023-02-17T00:34:03.194Z,86.83
2023-02-17T00:35:05.689Z,84.57
2023-02-17T00:36:11.479Z,85.97
2023-02-17T00:37:13.506Z,84.48
2023-02-17T00:38:15.268Z,83.87
2023-02-17T00:39:17.716Z,85.58
2023-02-17T00:40:19.551Z,85.70
2023-02-17T00:41:22.078Z,85.28
2023-02-17T00:42:23.854Z,84.28
2023-02-17T00:43:25.711Z,84.68
2023-02-17T00:44:27.596Z,82.73
2023-02-17T00:45:29.450Z,84.35
2023-02-17T00:46:31.374Z,84.48
2023-02-17T00:47:33.463Z,84.70
2023-02-17T00:48:35.333Z,83.98
2023-02-17T00:49:37.319Z,83.30
2023-02-17T00:50:39.110Z,85.63
2023-02-17T00:51:40.911Z,85.38
2023-02-17T00:52:42.721Z,84.98
2023-02-17T00:53:45.247Z,84.72
2023-02-17T00:54:47.056Z,83.50
2023-02-17T00:55:50.066Z,84.33
2023-02-17T00:56:52.201Z,83.83
2023-02-17T00:57:54.184Z,84.30
2023-02-17T00:58:56.001Z,83.33
2023-02-17T00:59:58.313Z,83.30
2023-02-17T01:01:00.434Z,84.75
2023-02-17T01:02:02.396Z,85.03
2023-02-17T01:03:04.457Z,82.57
2023-02-17T01:04:06.490Z,83.40
2023-02-17T01:05:08.613Z,83.25
2023-02-17T01:06:21.825Z,84.40
2023-02-17T01:07:23.795Z,83.25
2023-02-17T01:08:26.221Z,84.97
2023-02-17T01:09:28.251Z,86.17
2023-02-17T01:10:30.257Z,87.75
2023-02-17T01:11:34.084Z,87.30
2023-02-17T01:12:35.889Z,84.63
2023-02-17T01:13:37.626Z,84.22
2023-02-17T01:14:39.595Z,84.87
2023-02-17T01:15:50.197Z,83.32
2023-02-17T01:16:52.568Z,82.77
2023-02-17T01:17:54.568Z,88.03
2023-02-17T01:18:56.458Z,85.80
2023-02-17T01:19:58.389Z,84.08
2023-02-17T01:21:00.264Z,85.50
2023-02-17T01:22:02.094Z,88.35
2023-02-17T01:23:04.341Z,90.05
2023-02-17T01:24:07.431Z,91.47
2023-02-17T01:25:09.380Z,89.57
2023-02-17T01:26:19.846Z,89.58
2023-02-17T01:27:21.737Z,89.17
2023-02-17T01:28:23.600Z,89.40
2023-02-17T01:29:25.367Z,88.88
2023-02-17T01:30:27.184Z,87.70
2023-02-17T01:31:29.352Z,86.85
2023-02-17T01:32:31.217Z,87.42
2023-02-17T01:33:33.041Z,92.87
2023-02-17T01:34:34.832Z,90.90
2023-02-17T01:35:36.734Z,88.10
2023-02-17T01:36:39.069Z,90.65
2023-02-17T01:37:40.862Z,89.78
2023-02-17T01:38:43.851Z,88.15
2023-02-17T01:39:45.668Z,88.40
2023-02-17T01:40:48.304Z,88.72
2023-02-17T01:41:50.188Z,88.32
2023-02-17T01:42:52.138Z,88.03
2023-02-17T01:44:16.034Z,89.85
2023-02-17T01:45:17.788Z,89.18
2023-02-17T01:46:19.628Z,89.95
2023-02-17T01:47:21.367Z,89.48
2023-02-17T01:48:32.666Z,88.13
2023-02-17T01:49:38.492Z,88.23
2023-02-17T01:50:48.711Z,88.53
2023-02-17T01:51:59.292Z,89.03
2023-02-17T01:53:03.131Z,87.20
2023-02-17T01:54:09.768Z,86.73
2023-02-17T01:55:16.892Z,88.00
2023-02-17T01:56:19.169Z,87.65
2023-02-17T01:57:25.122Z,90.08
2023-02-17T01:58:28.204Z,88.93
2023-02-17T01:59:31.333Z,87.52
2023-02-17T02:00:34.428Z,89.38
2023-02-17T02:01:36.481Z,85.82
2023-02-17T02:02:39.455Z,85.62
2023-02-17T02:03:41.500Z,87.90
2023-02-17T02:04:46.118Z,87.50
2023-02-17T02:05:47.941Z,86.98
2023-02-17T02:06:49.866Z,88.22
2023-02-17T02:07:53.437Z,90.45
2023-02-17T02:09:18.340Z,88.92
2023-02-17T02:10:20.579Z,88.63
2023-02-17T02:11:23.162Z,87.75
2023-02-17T02:12:32.998Z,88.58
2023-02-17T02:13:34.866Z,88.12
2023-02-17T02:14:38.713Z,89.00
2023-02-17T02:16:07.826Z,88.40
2023-02-17T02:17:09.914Z,88.73
2023-02-17T02:18:24.349Z,89.58
2023-02-17T02:19:47.883Z,86.63
2023-02-17T02:21:22.761Z,89.03
2023-02-17T02:22:36.435Z,88.48
2023-02-17T02:24:02.080Z,88.30
2023-02-17T02:25:28.622Z,86.65
2023-02-17T02:26:55.027Z,88.23
2023-02-17T02:28:37.983Z,87.20
2023-02-17T02:30:27.730Z,88.53
2023-02-17T02:31:47.478Z,87.30
2023-02-17T02:33:17.118Z,88.13
2023-02-17T02:34:23.585Z,88.48
2023-02-17T02:36:04.215Z,87.07
2023-02-17T02:37:17.425Z,87.07
2023-02-17T02:38:40.773Z,87.10
2023-02-17T02:39:46.951Z,88.55
2023-02-17T02:41:04.986Z,86.63
2023-02-17T02:42:10.160Z,84.87
2023-02-17T02:43:12.541Z,87.13
2023-02-17T02:44:16.144Z,87.85
2023-02-17T02:45:18.990Z,88.32
2023-02-17T02:46:20.812Z,86.57
2023-02-17T02:47:45.995Z,87.15
2023-02-17T02:48:48.503Z,88.42
2023-02-17T02:49:50.446Z,87.57
2023-02-17T02:50:58.191Z,88.87
2023-02-17T02:52:08.107Z,87.02
2023-02-17T02:53:18.591Z,87.45
2023-02-17T02:54:32.658Z,86.92
2023-02-17T02:55:49.459Z,85.02
2023-02-17T02:57:04.687Z,87.90
2023-02-17T02:58:17.576Z,86.57
2023-02-17T02:59:28.494Z,86.48
2023-02-17T03:00:42.371Z,86.77
2023-02-17T03:01:53.886Z,87.55
2023-02-17T03:03:09.424Z,87.33
2023-02-17T03:04:36.635Z,88.07
2023-02-17T03:05:56.641Z,87.85
2023-02-17T03:07:21.175Z,88.57
2023-02-17T03:08:43.136Z,86.65
2023-02-17T03:09:44.942Z,87.33
2023-02-17T03:10:53.302Z,87.57
2023-02-17T03:11:56.677Z,85.32
2023-02-17T03:12:58.643Z,87.52
2023-02-17T03:14:15.938Z,87.67
2023-02-17T03:15:33.254Z,87.80
2023-02-17T03:16:37.149Z,87.48
2023-02-17T03:17:39.154Z,87.68
2023-02-17T03:18:40.941Z,87.52
2023-02-17T03:19:45.635Z,87.08
2023-02-17T03:20:57.864Z,87.77
2023-02-17T03:22:08.168Z,87.53
2023-02-17T03:23:10.214Z,89.62
2023-02-17T03:24:12.069Z,88.80
2023-02-17T03:25:14.497Z,89.72
2023-02-17T03:26:16.428Z,87.90
2023-02-17T03:27:18.493Z,88.20
2023-02-17T03:28:20.384Z,86.97
2023-02-17T03:29:22.193Z,89.15
2023-02-17T03:30:24.041Z,87.73
2023-02-17T03:31:25.996Z,88.68
2023-02-17T03:32:27.922Z,87.00
2023-02-17T03:33:29.689Z,86.42
2023-02-17T03:34:31.445Z,86.82
2023-02-17T03:35:33.220Z,86.73
2023-02-17T03:36:34.993Z,86.53
2023-02-17T03:37:36.773Z,87.65
2023-02-17T03:38:38.649Z,87.47
2023-02-17T03:39:40.668Z,86.35
2023-02-17T03:40:42.613Z,87.92
2023-02-17T03:41:44.535Z,87.30
2023-02-17T03:42:46.594Z,86.82
2023-02-17T03:43:48.445Z,86.80
2023-02-17T03:44:50.508Z,87.42
2023-02-17T03:45:52.318Z,88.77
2023-02-17T03:46:54.244Z,89.05
2023-02-17T03:47:56.044Z,88.08
2023-02-17T03:48:57.821Z,88.62
2023-02-17T03:49:59.735Z,85.63
2023-02-17T03:51:10.667Z,85.47
2023-02-17T03:52:12.635Z,88.72
2023-02-17T03:53:14.443Z,86.40
2023-02-17T03:54:16.265Z,87.97
2023-02-17T03:55:18.150Z,85.45
2023-02-17T03:56:20.263Z,86.90
2023-02-17T03:57:22.362Z,88.17
2023-02-17T03:58:24.202Z,88.68
2023-02-17T03:59:26.334Z,86.18
2023-02-17T04:00:28.184Z,91.18
2023-02-17T04:01:30.263Z,90.72
2023-02-17T04:02:32.118Z,92.25
2023-02-17T04:03:34.604Z,91.22
2023-02-17T04:04:36.466Z,91.77
2023-02-17T04:05:38.304Z,92.13
2023-02-17T04:06:40.122Z,90.17
2023-02-17T04:07:42.149Z,91.55
2023-02-17T04:08:44.005Z,92.05
2023-02-17T04:09:45.877Z,92.95
2023-02-17T04:10:52.704Z,94.60
2023-02-17T04:11:54.539Z,94.28
2023-02-17T04:12:56.294Z,91.83
2023-02-17T04:13:58.032Z,92.85
2023-02-17T04:14:59.790Z,92.50
2023-02-17T04:16:04.408Z,92.75
2023-02-17T04:17:06.544Z,91.72
2023-02-17T04:18:08.584Z,91.92
2023-02-17T04:19:10.833Z,89.37
2023-02-17T04:20:12.844Z,86.75
2023-02-17T04:21:14.716Z,87.55
2023-02-17T04:22:16.729Z,88.35
2023-02-17T04:23:18.953Z,87.28
2023-02-17T04:24:20.787Z,87.30
2023-02-17T04:25:23.448Z,86.40
2023-02-17T04:26:25.272Z,86.53
2023-02-17T04:27:27.190Z,87.70
2023-02-17T04:28:29.077Z,88.22
2023-02-17T04:29:33.128Z,86.72
2023-02-17T04:30:35.523Z,87.15
2023-02-17T04:31:37.576Z,88.60
2023-02-17T04:32:39.460Z,87.75
2023-02-17T04:33:41.286Z,85.55
2023-02-17T04:34:43.153Z,87.33
2023-02-17T04:35:45.093Z,87.52
2023-02-17T04:36:47.161Z,86.23
2023-02-17T04:37:49.065Z,85.28
2023-02-17T04:38:50.930Z,86.75
2023-02-17T04:39:52.726Z,85.35
2023-02-17T04:40:55.834Z,86.75
2023-02-17T04:41:57.571Z,85.68
2023-02-17T04:42:59.438Z,85.55
2023-02-17T04:44:01.181Z,88.65
2023-02-17T04:45:04.235Z,86.15
2023-02-17T04:46:06.313Z,85.37
2023-02-17T04:47:08.831Z,86.50
2023-02-17T04:48:10.718Z,86.02
2023-02-17T04:49:12.529Z,84.80
2023-02-17T04:50:14.625Z,86.25
2023-02-17T04:51:16.404Z,86.28
2023-02-17T04:52:18.221Z,85.68
2023-02-17T04:53:20.095Z,86.43
2023-02-17T04:54:22.919Z,85.72
2023-02-17T04:55:24.773Z,85.72
2023-02-17T04:56:26.582Z,84.82
2023-02-17T04:57:28.509Z,83.82
2023-02-17T04:58:30.978Z,85.78
2023-02-17T04:59:32.862Z,86.23
2023-02-17T05:00:35.289Z,82.93
2023-02-17T05:01:37.215Z,85.98
2023-02-17T05:02:39.024Z,85.62
2023-02-17T05:03:40.897Z,87.08
2023-02-17T05:04:44.556Z,84.82
2023-02-17T05:05:47.719Z,86.33
2023-02-17T05:06:49.707Z,86.85
2023-02-17T05:07:51.605Z,85.87
2023-02-17T05:08:54.147Z,85.95
2023-02-17T05:09:55.951Z,85.93
2023-02-17T05:10:57.925Z,84.50
2023-02-17T05:11:59.738Z,82.35
2023-02-17T05:13:01.504Z,84.68
2023-02-17T05:14:03.322Z,84.27
2023-02-17T05:15:05.765Z,84.68
2023-02-17T05:16:07.856Z,84.40
2023-02-17T05:17:09.854Z,83.78
2023-02-17T05:18:12.561Z,84.93
2023-02-17T05:19:14.464Z,86.17
2023-02-17T05:20:16.497Z,85.48
2023-02-17T05:21:19.152Z,85.07
2023-02-17T05:22:20.980Z,83.08
2023-02-17T05:23:22.975Z,82.43
2023-02-17T05:24:24.761Z,83.42
2023-02-17T05:25:26.533Z,86.83
2023-02-17T05:26:28.384Z,84.85
2023-02-17T05:27:30.392Z,86.57
2023-02-17T05:28:32.245Z,87.32
2023-02-17T05:29:34.137Z,87.03
2023-02-17T05:30:36.184Z,83.40
2023-02-17T05:31:38.135Z,85.48
2023-02-17T05:32:40.057Z,87.83
2023-02-17T05:33:41.865Z,94.42
2023-02-17T05:34:43.667Z,97.15
2023-02-17T05:35:45.568Z,98.73
2023-02-17T05:36:47.373Z,97.27
2023-02-17T05:37:49.203Z,91.75
2023-02-17T05:38:52.397Z,91.45
2023-02-17T05:39:54.177Z,91.80
2023-02-17T05:40:56.673Z,92.12
2023-02-17T05:41:58.416Z,92.15
2023-02-17T05:43:00.347Z,91.25
2023-02-17T05:44:02.137Z,90.95
2023-02-17T05:45:04.967Z,90.75
2023-02-17T05:46:07.517Z,91.42
2023-02-17T05:47:09.558Z,89.68
2023-02-17T05:48:11.329Z,88.58
2023-02-17T05:49:13.092Z,88.77
2023-02-17T05:50:14.969Z,89.03
2023-02-17T05:51:17.368Z,87.28
2023-02-17T05:52:19.916Z,84.90
2023-02-17T05:53:21.753Z,86.63
2023-02-17T05:54:23.522Z,86.67
2023-02-17T05:55:25.311Z,86.15
2023-02-17T05:56:27.100Z,87.93
2023-02-17T05:57:28.893Z,86.17
2023-02-17T05:58:30.828Z,85.90
2023-02-17T05:59:32.667Z,87.93
2023-02-17T06:00:34.852Z,87.40
2023-02-17T06:01:37.693Z,87.08
2023-02-17T06:02:39.578Z,86.87
2023-02-17T06:03:41.509Z,85.03
2023-02-17T06:04:43.416Z,85.27
2023-02-17T06:05:45.834Z,85.68
2023-02-17T06:06:47.914Z,88.58
2023-02-17T06:07:49.817Z,90.90
2023-02-17T06:08:51.928Z,90.68
2023-02-17T06:09:53.821Z,88.02
2023-02-17T06:10:55.951Z,91.03
2023-02-17T06:11:57.734Z,91.18
2023-02-17T06:12:59.652Z,93.25
2023-02-17T06:14:01.461Z,92.78
2023-02-17T06:15:03.813Z,91.17
2023-02-17T06:16:06.417Z,92.32
2023-02-17T06:17:08.532Z,92.58
2023-02-17T06:18:10.934Z,92.65
2023-02-17T06:19:12.854Z,90.38
2023-02-17T06:20:15.121Z,90.12
2023-02-17T06:21:16.991Z,88.15
2023-02-17T06:22:19.113Z,88.10
2023-02-17T06:23:20.903Z,89.30
2023-02-17T06:24:23.254Z,89.10
2023-02-17T06:25:25.042Z,89.42
2023-02-17T06:26:27.116Z,90.05
2023-02-17T06:27:28.944Z,86.98
2023-02-17T06:28:31.117Z,88.77
2023-02-17T06:29:33.169Z,88.15
2023-02-17T06:30:35.046Z,86.12
2023-02-17T06:31:37.052Z,84.17
2023-02-17T06:32:38.933Z,82.87
2023-02-17T06:33:40.676Z,82.37
2023-02-17T06:34:42.765Z,81.37
2023-02-17T06:35:49.113Z,80.17
2023-02-17T06:36:50.933Z,80.92
2023-02-17T06:37:53.221Z,78.92
2023-02-17T06:38:55.357Z,81.22
2023-02-17T06:39:57.221Z,82.75
2023-02-17T06:40:59.005Z,80.18
2023-02-17T06:42:00.860Z,80.83
2023-02-17T06:43:02.611Z,81.12
2023-02-17T06:44:04.491Z,79.80
2023-02-17T06:45:06.873Z,79.82
2023-02-17T06:46:09.210Z,77.83
2023-02-17T06:47:11.296Z,76.65
2023-02-17T06:48:13.322Z,77.18
2023-02-17T06:49:15.790Z,77.17
2023-02-17T06:50:17.695Z,77.93
2023-02-17T06:51:19.672Z,77.18
2023-02-17T06:52:21.577Z,75.20
2023-02-17T06:53:23.367Z,77.75
2023-02-17T06:54:25.118Z,76.25
2023-02-17T06:55:27.088Z,73.20
2023-02-17T06:56:28.895Z,73.80
2023-02-17T06:57:30.869Z,75.45
2023-02-17T06:58:35.374Z,73.27
2023-02-17T06:59:37.416Z,72.72
2023-02-17T07:00:39.277Z,71.15
2023-02-17T07:01:41.134Z,72.23
2023-02-17T07:02:43.037Z,70.70
2023-02-17T07:03:45.149Z,71.15
2023-02-17T07:04:46.974Z,70.05
2023-02-17T07:05:48.922Z,70.22
2023-02-17T07:06:51.080Z,71.13
2023-02-17T07:07:53.679Z,71.23
2023-02-17T07:08:55.511Z,70.37
2023-02-17T07:09:57.381Z,69.80
2023-02-17T07:10:59.194Z,70.43
2023-02-17T07:12:01.359Z,70.50
2023-02-17T07:13:03.273Z,70.67
2023-02-17T07:14:05.437Z,69.53
2023-02-17T07:15:11.789Z,72.60
2023-02-17T07:16:14.945Z,72.05
2023-02-17T07:17:17.193Z,72.17
2023-02-17T07:18:18.973Z,71.13
2023-02-17T07:19:20.830Z,72.33
2023-02-17T07:20:22.759Z,70.97
2023-02-17T07:21:25.009Z,69.35
2023-02-17T07:22:27.548Z,68.30
2023-02-17T07:23:29.538Z,67.93
2023-02-17T07:24:31.373Z,67.38
2023-02-17T07:25:34.066Z,68.22
2023-02-17T07:26:37.459Z,67.05
2023-02-17T07:27:39.793Z,67.42
2023-02-17T07:28:42.161Z,67.12
2023-02-17T07:29:44.160Z,67.12
2023-02-17T07:30:46.195Z,69.05
2023-02-17T07:31:48.788Z,70.92
2023-02-17T07:32:50.673Z,71.10
2023-02-17T07:33:52.839Z,72.62
2023-02-17T07:34:54.757Z,78.92
2023-02-17T07:35:56.565Z,71.70
2023-02-17T07:36:58.500Z,71.45
2023-02-17T07:38:01.039Z,67.93
2023-02-17T07:39:03.873Z,69.60
2023-02-17T07:40:06.975Z,68.60
2023-02-17T07:41:22.905Z,65.27
2023-02-17T07:42:27.776Z,63.53
2023-02-17T07:43:29.694Z,61.38
2023-02-17T07:44:32.230Z,63.28
2023-02-17T07:45:34.094Z,63.92
2023-02-17T07:46:37.076Z,65.38
2023-02-17T07:47:38.964Z,67.77
2023-02-17T07:48:41.211Z,71.22
2023-02-17T07:49:43.173Z,70.98
2023-02-17T07:50:48.056Z,71.65
2023-02-17T07:51:50.032Z,71.80
2023-02-17T07:52:52.330Z,72.90
2023-02-17T07:53:58.002Z,69.05
2023-02-17T07:55:00.118Z,62.20
2023-02-17T07:56:07.808Z,62.08
2023-02-17T07:57:09.810Z,59.78
2023-02-17T07:58:11.741Z,61.35
2023-02-17T07:59:14.909Z,60.87
2023-02-17T08:00:17.556Z,60.20
2023-02-17T08:01:21.806Z,60.13
2023-02-17T08:02:24.317Z,59.52
2023-02-17T08:03:26.660Z,57.62
2023-02-17T08:04:28.665Z,58.43
2023-02-17T08:05:30.488Z,59.53
2023-02-17T08:06:32.884Z,61.73
2023-02-17T08:07:34.957Z,65.93
2023-02-17T08:08:55.505Z,64.57
2023-02-17T08:10:16.090Z,66.20
2023-02-17T08:11:36.557Z,100.60
2023-02-17T08:12:57.070Z,102.02
2023-02-17T08:13:58.863Z,79.13
2023-02-17T08:15:01.962Z,64.75
2023-02-17T08:16:05.221Z,75.22
2023-02-17T08:17:07.706Z,66.33
2023-02-17T08:18:10.020Z,77.85
2023-02-17T08:19:11.980Z,75.25
2023-02-17T08:20:15.718Z,70.00
2023-02-17T08:21:17.681Z,67.88
2023-02-17T08:22:19.553Z,60.02
2023-02-17T08:23:21.628Z,57.08
2023-02-17T08:24:24.736Z,81.88
2023-02-17T08:25:26.692Z,121.13
2023-02-17T08:26:28.674Z,92.85
2023-02-17T08:27:30.618Z,78.70
2023-02-17T08:28:33.414Z,74.97
2023-02-17T08:29:35.319Z,59.65
2023-02-17T08:30:38.511Z,56.45
2023-02-17T08:31:41.271Z,53.27
2023-02-17T08:32:45.205Z,53.92
2023-02-17T08:33:47.931Z,54.35
2023-02-17T08:34:49.826Z,56.72
2023-02-17T08:35:51.784Z,54.88
2023-02-17T08:36:54.331Z,57.02
2023-02-17T08:37:58.873Z,56.22
2023-02-17T08:39:01.624Z,55.13
2023-02-17T08:40:04.320Z,52.80
2023-02-17T08:41:13.785Z,53.83
2023-02-17T08:42:15.859Z,53.78
2023-02-17T08:43:17.821Z,54.43
2023-02-17T08:44:23.518Z,54.63
2023-02-17T08:45:28.452Z,52.82
2023-02-17T08:46:30.858Z,52.77
2023-02-17T08:47:32.906Z,50.38
2023-02-17T08:48:36.685Z,50.77
2023-02-17T08:49:38.704Z,51.90
2023-02-17T08:50:40.625Z,52.63
2023-02-17T08:51:42.981Z,52.68
2023-02-17T08:53:05.681Z,57.85
2023-02-17T08:54:16.218Z,61.80
2023-02-17T08:55:26.405Z,66.43
2023-02-17T08:56:45.933Z,55.60
2023-02-17T08:57:48.379Z,53.93
2023-02-17T08:58:51.871Z,53.38
2023-02-17T08:59:54.257Z,53.62
2023-02-17T09:00:56.338Z,51.92
2023-02-17T09:01:58.729Z,53.30
2023-02-17T09:03:00.878Z,54.77
2023-02-17T09:04:04.662Z,54.32
2023-02-17T09:05:07.774Z,55.08
2023-02-17T09:06:09.785Z,71.07
2023-02-17T09:07:13.701Z,57.02
2023-02-17T09:08:15.604Z,53.85
2023-02-17T09:09:20.780Z,52.53
2023-02-17T09:10:22.595Z,50.65
2023-02-17T09:11:24.473Z,51.65
2023-02-17T09:12:26.461Z,52.48
2023-02-17T09:13:28.570Z,50.30
2023-02-17T09:14:30.789Z,51.62
2023-02-17T09:15:32.669Z,51.35
2023-02-17T09:16:34.816Z,52.65
2023-02-17T09:17:40.782Z,52.82
2023-02-17T09:18:42.907Z,52.38
2023-02-17T09:19:46.072Z,51.50
2023-02-17T09:20:48.601Z,50.32
2023-02-17T09:21:53.278Z,51.93
2023-02-17T09:22:55.316Z,52.40
2023-02-17T09:23:57.336Z,51.80
2023-02-17T09:24:59.281Z,52.78
2023-02-17T09:26:07.116Z,52.90
2023-02-17T09:27:09.761Z,54.13
2023-02-17T09:28:14.056Z,53.33
2023-02-17T09:29:16.109Z,53.83
2023-02-17T09:30:18.177Z,53.68
2023-02-17T09:31:25.258Z,52.90
2023-02-17T09:32:27.519Z,54.40
2023-02-17T09:33:29.713Z,51.83
2023-02-17T09:34:35.657Z,52.40
2023-02-17T09:35:38.114Z,51.32
2023-02-17T09:36:41.969Z,51.03
2023-02-17T09:37:44.783Z,50.60
2023-02-17T09:38:47.189Z,51.12
2023-02-17T09:39:49.542Z,52.62
2023-02-17T09:40:51.535Z,67.45
2023-02-17T09:41:55.396Z,67.90
2023-02-17T09:42:57.346Z,56.48
2023-02-17T09:44:00.000Z,52.83
2023-02-17T09:45:05.633Z,53.62
2023-02-17T09:46:19.330Z,54.95
2023-02-17T09:47:42.548Z,55.92
2023-02-17T09:48:49.529Z,55.15
2023-02-17T09:49:56.379Z,53.78
2023-02-17T09:51:14.806Z,54.05
2023-02-17T09:52:38.182Z,53.83
2023-02-17T09:53:42.743Z,54.45
2023-02-17T09:55:30.070Z,54.45
2023-02-17T09:56:38.963Z,54.53
2023-02-17T09:57:55.669Z,52.27
2023-02-17T09:59:00.354Z,52.28
2023-02-17T10:00:18.181Z,51.18
2023-02-17T10:01:24.277Z,51.30
2023-02-17T10:02:36.865Z,50.65
2023-02-17T10:03:45.107Z,51.93
2023-02-17T10:04:49.774Z,52.23
2023-02-17T10:06:01.816Z,50.45
2023-02-17T10:07:11.466Z,47.77
2023-02-17T10:08:36.109Z,50.45
2023-02-17T10:09:47.602Z,57.55
2023-02-17T10:10:55.041Z,65.42
2023-02-17T10:12:04.380Z,58.38
2023-02-17T10:13:06.712Z,71.30
2023-02-17T10:14:38.351Z,101.30
2023-02-17T10:15:43.603Z,92.33
2023-02-17T10:17:14.380Z,105.03
2023-02-17T10:18:26.767Z,115.40
2023-02-17T10:19:48.013Z,82.93
2023-02-17T10:20:58.387Z,57.12
2023-02-17T10:22:16.399Z,51.85
2023-02-17T10:23:26.974Z,50.70
2023-02-17T10:24:28.849Z,52.10
2023-02-17T10:25:44.958Z,49.18
2023-02-17T10:27:10.520Z,52.30
2023-02-17T10:28:23.054Z,66.97
2023-02-17T10:29:47.686Z,56.33
2023-02-17T10:31:04.081Z,56.27
2023-02-17T10:32:27.110Z,42.93
2023-02-17T10:33:29.626Z,41.20
2023-02-17T10:34:37.470Z,49.28
2023-02-17T10:35:52.247Z,54.15
2023-02-17T10:36:57.598Z,48.15
2023-02-17T10:38:12.844Z,40.28
2023-02-17T10:39:39.743Z,33.72
2023-02-17T10:40:42.801Z,34.42
2023-02-17T10:41:48.481Z,33.50
2023-02-17T10:42:54.666Z,33.18
2023-02-17T10:43:56.485Z,33.05
2023-02-17T10:45:22.669Z,33.43
2023-02-17T10:46:29.813Z,35.72
2023-02-17T10:47:33.216Z,37.27
2023-02-17T10:48:53.825Z,38.30
2023-02-17T10:49:57.160Z,39.73
2023-02-17T10:51:00.962Z,38.35
2023-02-17T10:52:20.028Z,38.00
2023-02-17T10:53:25.203Z,38.67
2023-02-17T10:54:34.701Z,36.98
2023-02-17T10:55:41.348Z,38.08
2023-02-17T10:56:48.685Z,35.63
2023-02-17T10:57:59.008Z,33.82
2023-02-17T10:59:24.316Z,35.38
2023-02-17T11:00:29.103Z,37.80
2023-02-17T11:01:31.055Z,38.68
2023-02-17T11:02:38.028Z,36.80
2023-02-17T11:03:43.771Z,36.40
2023-02-17T11:04:52.005Z,40.47
2023-02-17T11:05:56.303Z,42.88
2023-02-17T11:07:00.897Z,58.40
2023-02-17T11:08:06.482Z,49.63
2023-02-17T11:09:20.924Z,42.45
2023-02-17T11:10:28.274Z,42.10
2023-02-17T11:11:32.910Z,41.73
2023-02-17T11:12:40.401Z,37.88
2023-02-17T11:14:08.456Z,37.10
2023-02-17T11:15:22.773Z,38.40
2023-02-17T11:16:32.378Z,39.17
2023-02-17T11:17:40.002Z,41.30
2023-02-17T11:18:50.979Z,45.63
2023-02-17T11:20:05.586Z,47.13
2023-02-17T11:21:11.951Z,43.38
2023-02-17T11:22:32.913Z,42.58
2023-02-17T11:23:36.191Z,40.80
2023-02-17T11:24:38.756Z,40.52
2023-02-17T11:25:42.282Z,39.82
2023-02-17T11:26:44.276Z,40.43
2023-02-17T11:27:53.291Z,40.40
2023-02-17T11:28:55.461Z,42.03
2023-02-17T11:30:08.641Z,43.08
2023-02-17T11:31:26.070Z,41.72
2023-02-17T11:32:32.636Z,42.80
2023-02-17T11:33:37.987Z,40.67
2023-02-17T11:34:42.350Z,40.98
2023-02-17T11:35:49.953Z,40.83
2023-02-17T11:37:11.716Z,42.52
2023-02-17T11:38:16.673Z,42.87
2023-02-17T11:39:20.538Z,41.63
2023-02-17T11:41:16.608Z,41.62
2023-02-17T11:42:50.346Z,43.72
2023-02-17T11:44:00.002Z,44.43
2023-02-17T11:45:17.482Z,42.43
2023-02-17T11:46:48.584Z,43.05
2023-02-17T11:48:10.087Z,46.67
2023-02-17T11:49:26.219Z,46.03
2023-02-17T11:50:52.205Z,64.27
2023-02-17T11:52:15.619Z,112.92
2023-02-17T11:53:30.897Z,85.12
2023-02-17T11:54:56.743Z,68.02
2023-02-17T11:56:07.981Z,61.78
2023-02-17T11:57:34.383Z,53.38
2023-02-17T11:59:01.462Z,54.03
2023-02-17T12:00:24.601Z,49.20
2023-02-17T12:02:05.547Z,48.38
2023-02-17T12:03:30.562Z,48.50
2023-02-17T12:04:54.639Z,49.93
2023-02-17T12:06:11.409Z,50.05
2023-02-17T12:07:37.756Z,51.63
2023-02-17T12:09:00.289Z,51.33
2023-02-17T12:10:29.377Z,49.57
2023-02-17T12:11:45.767Z,50.23
2023-02-17T12:13:02.335Z,51.28
2023-02-17T12:14:25.449Z,50.18
2023-02-17T12:16:00.997Z,52.33
2023-02-17T12:17:16.058Z,53.02
2023-02-17T12:18:26.976Z,52.95
2023-02-17T12:19:42.080Z,53.58
2023-02-17T12:21:20.726Z,52.03
2023-02-17T12:22:35.142Z,51.10
2023-02-17T12:23:48.848Z,51.57
2023-02-17T12:24:58.695Z,52.72
2023-02-17T12:26:17.778Z,56.23
2023-02-17T12:27:38.013Z,57.33
2023-02-17T12:28:40.033Z,56.03
2023-02-17T12:30:05.439Z,54.90
2023-02-17T12:31:40.843Z,55.38
2023-02-17T12:33:36.752Z,56.42
2023-02-17T12:34:44.506Z,55.28
2023-02-17T12:35:55.631Z,56.42
2023-02-17T12:36:58.942Z,55.17
2023-02-17T12:38:09.067Z,53.15
2023-02-17T12:39:19.750Z,55.30
2023-02-17T12:40:40.255Z,55.07
2023-02-17T12:41:59.954Z,57.05
2023-02-17T12:43:07.734Z,56.02
2023-02-17T12:44:40.940Z,56.22
2023-02-17T12:45:48.564Z,53.97
2023-02-17T12:47:04.482Z,55.28
2023-02-17T12:48:27.135Z,57.58
2023-02-17T12:49:41.023Z,58.10
2023-02-17T12:50:52.533Z,56.52
2023-02-17T12:52:20.070Z,56.38
2023-02-17T12:53:42.328Z,55.60
2023-02-17T12:54:57.983Z,57.87
2023-02-17T12:56:04.932Z,55.15
2023-02-17T12:57:25.614Z,55.47
2023-02-17T12:58:30.602Z,56.20
2023-02-17T12:59:35.046Z,56.65
2023-02-17T13:00:41.437Z,54.37
2023-02-17T13:01:49.838Z,53.82
2023-02-17T13:02:52.677Z,55.63
2023-02-17T13:03:54.866Z,56.43
2023-02-17T13:05:01.899Z,55.20
2023-02-17T13:06:22.047Z,59.03
2023-02-17T13:07:36.205Z,58.57
2023-02-17T13:09:08.680Z,60.92
2023-02-17T13:10:39.851Z,58.90
2023-02-17T13:11:41.933Z,55.15
2023-02-17T13:12:44.516Z,55.25
2023-02-17T13:13:46.399Z,56.72
2023-02-17T13:14:56.757Z,57.55
2023-02-17T13:16:13.241Z,57.65
2023-02-17T13:17:38.479Z,58.00
2023-02-17T13:18:43.109Z,56.97
2023-02-17T13:19:45.304Z,58.55
2023-02-17T13:20:59.837Z,58.00
2023-02-17T13:22:02.426Z,59.80
2023-02-17T13:23:11.745Z,57.43
2023-02-17T13:24:16.700Z,59.03
2023-02-17T13:25:30.760Z,58.17
2023-02-17T13:26:35.546Z,57.12
2023-02-17T13:27:42.685Z,56.80
2023-02-17T13:28:45.605Z,57.68
2023-02-17T13:30:16.522Z,61.02
2023-02-17T13:31:22.000Z,62.15
2023-02-17T13:32:32.161Z,61.02
2023-02-17T13:33:45.176Z,61.37
2023-02-17T13:34:47.007Z,62.23
2023-02-17T13:35:49.242Z,61.93
2023-02-17T13:36:51.616Z,62.13
2023-02-17T13:37:54.151Z,61.28
2023-02-17T13:39:01.872Z,61.97
2023-02-17T13:40:24.434Z,62.53
2023-02-17T13:41:30.388Z,64.65
2023-02-17T13:42:34.825Z,65.15
2023-02-17T13:43:43.401Z,63.53
2023-02-17T13:44:47.081Z,63.98
2023-02-17T13:45:54.005Z,64.40
2023-02-17T13:47:25.264Z,64.10
2023-02-17T13:48:30.857Z,64.53
2023-02-17T13:49:35.237Z,65.83
2023-02-17T13:50:59.389Z,65.17
2023-02-17T13:52:31.345Z,65.72
2023-02-17T13:53:39.534Z,66.53
2023-02-17T13:54:51.727Z,66.38
2023-02-17T13:55:55.720Z,66.83
2023-02-17T13:56:57.519Z,66.25
2023-02-17T13:57:59.927Z,65.40
2023-02-17T13:59:17.985Z,65.28
2023-02-17T14:00:30.537Z,65.97
2023-02-17T14:01:36.833Z,66.12
2023-02-17T14:02:50.040Z,68.15
2023-02-17T14:03:54.194Z,65.78
2023-02-17T14:04:56.131Z,66.58
2023-02-17T14:05:59.825Z,66.73
2023-02-17T14:07:04.814Z,66.97
2023-02-17T14:08:24.333Z,68.23
2023-02-17T14:09:30.614Z,68.10
2023-02-17T14:10:32.714Z,69.73
2023-02-17T14:11:34.669Z,70.23
2023-02-17T14:12:36.448Z,69.48
2023-02-17T14:13:41.987Z,70.62
2023-02-17T14:14:44.004Z,72.22
2023-02-17T14:15:50.889Z,73.68
2023-02-17T14:17:05.040Z,73.68
2023-02-17T14:18:14.570Z,73.70
2023-02-17T14:19:18.664Z,69.13